sensor_id;sensor_type;location;lat;lon;timestamp;temperature;humidity
23609;DHT22;11982;50.810;4.442;2023-01-29T00:00:38;-1.90;99.90
23609;DHT22;11982;50.810;4.442;2023-01-29T00:03:03;-1.80;99.90
23609;DHT22;11982;50.810;4.442;2023-01-29T00:05:30;-1.80;99.90
23609;DHT22;11982;50.810;4.442;2023-01-29T00:07:56;-1.80;99.90
23609;DHT22;11982;50.810;4.442;2023-01-29T00:10:23;-1.80;99.90
23609;DHT22;11982;50.810;4.442;2023-01-29T00:12:49;-1.80;99.90
23609;DHT22;11982;50.810;4.442;2023-01-29T00:15:16;-1.70;99.90
23609;DHT22;11982;50.810;4.442;2023-01-29T00:17:42;-1.80;99.90
23609;DHT22;11982;50.810;4.442;2023-01-29T00:20:08;-1.90;99.90
23609;DHT22;11982;50.810;4.442;2023-01-29T00:22:34;-1.90;99.90
23609;DHT22;11982;50.810;4.442;2023-01-29T00:25:00;-1.90;99.90
23609;DHT22;11982;50.810;4.442;2023-01-29T00:27:26;-1.90;99.90
23609;DHT22;11982;50.810;4.442;2023-01-29T00:29:51;-1.80;99.90
23609;DHT22;11982;50.810;4.442;2023-01-29T00:32:34;-1.80;99.90
23609;DHT22;11982;50.810;4.442;2023-01-29T00:35:00;-1.80;99.90
23609;DHT22;11982;50.810;4.442;2023-01-29T00:37:26;-1.90;99.90
23609;DHT22;11982;50.810;4.442;2023-01-29T00:39:52;-2.00;99.90
23609;DHT22;11982;50.810;4.442;2023-01-29T00:42:17;-2.10;99.90
23609;DHT22;11982;50.810;4.442;2023-01-29T00:45:02;-2.10;99.90
23609;DHT22;11982;50.810;4.442;2023-01-29T00:47:27;-2.20;99.90
23609;DHT22;11982;50.810;4.442;2023-01-29T00:49:59;-2.20;99.90
23609;DHT22;11982;50.810;4.442;2023-01-29T00:52:25;-2.20;99.90
23609;DHT22;11982;50.810;4.442;2023-01-29T00:54:52;-2.10;99.90
23609;DHT22;11982;50.810;4.442;2023-01-29T00:57:18;-2.10;99.90
23609;DHT22;11982;50.810;4.442;2023-01-29T00:59:43;-2.10;99.90
23609;DHT22;11982;50.810;4.442;2023-01-29T01:02:11;-2.10;99.90
23609;DHT22;11982;50.810;4.442;2023-01-29T01:04:55;-2.10;99.90
23609;DHT22;11982;50.810;4.442;2023-01-29T01:07:21;-2.10;99.90
23609;DHT22;11982;50.810;4.442;2023-01-29T01:09:46;-2.10;99.90
23609;DHT22;11982;50.810;4.442;2023-01-29T01:12:31;-2.10;99.90
23609;DHT22;11982;50.810;4.442;2023-01-29T01:14:57;-2.20;99.90
23609;DHT22;11982;50.810;4.442;2023-01-29T01:17:22;-2.20;99.90
23609;DHT22;11982;50.810;4.442;2023-01-29T01:19:48;-2.20;99.90
23609;DHT22;11982;50.810;4.442;2023-01-29T01:22:14;-2.20;99.90
23609;DHT22;11982;50.810;4.442;2023-01-29T01:24:40;-2.30;99.90
23609;DHT22;11982;50.810;4.442;2023-01-29T01:27:06;-2.20;99.90
23609;DHT22;11982;50.810;4.442;2023-01-29T01:29:31;-2.20;99.90
23609;DHT22;11982;50.810;4.442;2023-01-29T01:31:57;-2.30;99.90
23609;DHT22;11982;50.810;4.442;2023-01-29T01:34:24;-2.30;99.90
23609;DHT22;11982;50.810;4.442;2023-01-29T01:36:52;-2.40;99.90
23609;DHT22;11982;50.810;4.442;2023-01-29T01:39:18;-2.50;99.90
23609;DHT22;11982;50.810;4.442;2023-01-29T01:41:44;-2.40;99.90
23609;DHT22;11982;50.810;4.442;2023-01-29T01:47:14;-2.40;99.90
23609;DHT22;11982;50.810;4.442;2023-01-29T01:49:40;-2.30;99.90
23609;DHT22;11982;50.810;4.442;2023-01-29T01:52:07;-2.30;99.90
23609;DHT22;11982;50.810;4.442;2023-01-29T01:54:33;-2.30;99.90
23609;DHT22;11982;50.810;4.442;2023-01-29T01:57:07;-2.40;99.90
23609;DHT22;11982;50.810;4.442;2023-01-29T01:59:37;-2.40;99.90
23609;DHT22;11982;50.810;4.442;2023-01-29T02:02:04;-2.40;99.90
23609;DHT22;11982;50.810;4.442;2023-01-29T02:04:50;-2.40;99.90
23609;DHT22;11982;50.810;4.442;2023-01-29T02:07:40;-2.50;99.90
23609;DHT22;11982;50.810;4.442;2023-01-29T02:10:26;-2.50;99.90
23609;DHT22;11982;50.810;4.442;2023-01-29T02:12:54;-2.60;99.90
23609;DHT22;11982;50.810;4.442;2023-01-29T02:15:19;-2.50;99.90
23609;DHT22;11982;50.810;4.442;2023-01-29T02:17:45;-2.50;99.90
23609;DHT22;11982;50.810;4.442;2023-01-29T02:20:24;-2.60;99.90
23609;DHT22;11982;50.810;4.442;2023-01-29T02:33:54;-2.50;99.90
23609;DHT22;11982;50.810;4.442;2023-01-29T02:36:45;-2.40;99.90
23609;DHT22;11982;50.810;4.442;2023-01-29T02:39:31;-2.50;99.90
23609;DHT22;11982;50.810;4.442;2023-01-29T02:42:12;-2.60;99.90
23609;DHT22;11982;50.810;4.442;2023-01-29T02:44:42;-2.50;99.90
23609;DHT22;11982;50.810;4.442;2023-01-29T02:50:36;-2.60;99.90
23609;DHT22;11982;50.810;4.442;2023-01-29T02:56:01;-2.60;99.90
23609;DHT22;11982;50.810;4.442;2023-01-29T02:58:35;-2.60;99.90
23609;DHT22;11982;50.810;4.442;2023-01-29T03:01:08;-2.60;99.90
23609;DHT22;11982;50.810;4.442;2023-01-29T03:03:42;-2.50;99.90
23609;DHT22;11982;50.810;4.442;2023-01-29T03:06:19;-2.40;99.90
23609;DHT22;11982;50.810;4.442;2023-01-29T03:08:56;-2.50;99.90
23609;DHT22;11982;50.810;4.442;2023-01-29T03:11:23;-2.50;99.90
23609;DHT22;11982;50.810;4.442;2023-01-29T03:16:33;-2.50;99.90
23609;DHT22;11982;50.810;4.442;2023-01-29T03:19:10;-2.50;99.90
23609;DHT22;11982;50.810;4.442;2023-01-29T03:21:43;-2.50;99.90
23609;DHT22;11982;50.810;4.442;2023-01-29T03:27:21;-2.60;99.90
23609;DHT22;11982;50.810;4.442;2023-01-29T03:30:08;-2.70;99.90
23609;DHT22;11982;50.810;4.442;2023-01-29T03:32:54;-2.70;99.90
23609;DHT22;11982;50.810;4.442;2023-01-29T03:35:23;-2.60;99.90
23609;DHT22;11982;50.810;4.442;2023-01-29T03:37:57;-2.60;99.90
23609;DHT22;11982;50.810;4.442;2023-01-29T03:40:24;-2.60;99.90
23609;DHT22;11982;50.810;4.442;2023-01-29T03:43:11;-2.50;99.90
23609;DHT22;11982;50.810;4.442;2023-01-29T03:48:16;-2.50;99.90
23609;DHT22;11982;50.810;4.442;2023-01-29T03:51:24;-2.60;99.90
23609;DHT22;11982;50.810;4.442;2023-01-29T03:59:26;-2.70;99.90
23609;DHT22;11982;50.810;4.442;2023-01-29T04:02:01;-2.70;99.90
23609;DHT22;11982;50.810;4.442;2023-01-29T04:04:32;-2.70;99.90
23609;DHT22;11982;50.810;4.442;2023-01-29T04:07:10;-2.70;99.90
23609;DHT22;11982;50.810;4.442;2023-01-29T04:09:42;-2.70;99.90
23609;DHT22;11982;50.810;4.442;2023-01-29T04:12:11;-2.70;99.90
23609;DHT22;11982;50.810;4.442;2023-01-29T04:14:39;-2.60;99.90
23609;DHT22;11982;50.810;4.442;2023-01-29T04:17:20;-2.60;99.90
23609;DHT22;11982;50.810;4.442;2023-01-29T04:19:46;-2.60;99.90
23609;DHT22;11982;50.810;4.442;2023-01-29T04:22:26;-2.70;99.90
23609;DHT22;11982;50.810;4.442;2023-01-29T04:24:52;-2.70;99.90
23609;DHT22;11982;50.810;4.442;2023-01-29T04:39:12;-2.20;99.90
23609;DHT22;11982;50.810;4.442;2023-01-29T04:44:39;-2.30;99.90
23609;DHT22;11982;50.810;4.442;2023-01-29T04:50:10;-2.10;99.90
23609;DHT22;11982;50.810;4.442;2023-01-29T04:55:20;-2.30;99.90
23609;DHT22;11982;50.810;4.442;2023-01-29T05:00:18;-2.30;99.90
23609;DHT22;11982;50.810;4.442;2023-01-29T05:02:47;-2.30;99.90
23609;DHT22;11982;50.810;4.442;2023-01-29T05:05:15;-2.20;99.90
23609;DHT22;11982;50.810;4.442;2023-01-29T05:07:43;-2.00;99.90
23609;DHT22;11982;50.810;4.442;2023-01-29T05:10:09;-1.90;99.90
23609;DHT22;11982;50.810;4.442;2023-01-29T05:12:37;-2.00;99.90
23609;DHT22;11982;50.810;4.442;2023-01-29T05:15:11;-1.80;99.90
23609;DHT22;11982;50.810;4.442;2023-01-29T05:17:38;-1.80;99.90
23609;DHT22;11982;50.810;4.442;2023-01-29T05:20:06;-1.50;99.90
23609;DHT22;11982;50.810;4.442;2023-01-29T05:22:32;-1.50;99.90
23609;DHT22;11982;50.810;4.442;2023-01-29T05:25:01;-1.50;99.90
23609;DHT22;11982;50.810;4.442;2023-01-29T05:27:33;-1.60;99.90
23609;DHT22;11982;50.810;4.442;2023-01-29T05:30:17;-1.60;99.90
23609;DHT22;11982;50.810;4.442;2023-01-29T05:32:43;-1.50;99.90
23609;DHT22;11982;50.810;4.442;2023-01-29T05:35:09;-1.30;99.90
23609;DHT22;11982;50.810;4.442;2023-01-29T05:37:34;-1.10;99.90
23609;DHT22;11982;50.810;4.442;2023-01-29T05:40:00;-1.00;99.90
23609;DHT22;11982;50.810;4.442;2023-01-29T05:42:26;-0.90;99.90
23609;DHT22;11982;50.810;4.442;2023-01-29T05:44:51;-0.90;99.90
23609;DHT22;11982;50.810;4.442;2023-01-29T05:47:20;-0.90;99.90
23609;DHT22;11982;50.810;4.442;2023-01-29T05:49:46;-0.90;99.90
23609;DHT22;11982;50.810;4.442;2023-01-29T05:52:11;-0.80;99.90
23609;DHT22;11982;50.810;4.442;2023-01-29T05:54:37;-1.00;99.90
23609;DHT22;11982;50.810;4.442;2023-01-29T05:57:03;-0.90;99.90
23609;DHT22;11982;50.810;4.442;2023-01-29T05:59:28;-1.00;99.90
23609;DHT22;11982;50.810;4.442;2023-01-29T06:01:56;-0.90;99.90
23609;DHT22;11982;50.810;4.442;2023-01-29T06:04:22;-0.80;99.90
23609;DHT22;11982;50.810;4.442;2023-01-29T06:06:48;-0.70;99.90
23609;DHT22;11982;50.810;4.442;2023-01-29T06:09:13;-0.60;99.90
23609;DHT22;11982;50.810;4.442;2023-01-29T06:11:39;-0.50;99.90
23609;DHT22;11982;50.810;4.442;2023-01-29T06:14:05;-0.40;99.90
23609;DHT22;11982;50.810;4.442;2023-01-29T06:16:31;-0.40;99.90
23609;DHT22;11982;50.810;4.442;2023-01-29T06:18:56;-0.30;99.90
23609;DHT22;11982;50.810;4.442;2023-01-29T06:21:22;-0.30;99.90
23609;DHT22;11982;50.810;4.442;2023-01-29T06:23:48;-0.30;99.90
23609;DHT22;11982;50.810;4.442;2023-01-29T06:26:14;-0.20;99.90
23609;DHT22;11982;50.810;4.442;2023-01-29T06:28:40;0.00;99.90
23609;DHT22;11982;50.810;4.442;2023-01-29T06:31:06;0.20;99.90
23609;DHT22;11982;50.810;4.442;2023-01-29T06:33:33;0.20;99.90
23609;DHT22;11982;50.810;4.442;2023-01-29T06:36:01;0.20;99.90
23609;DHT22;11982;50.810;4.442;2023-01-29T06:38:27;0.40;99.90
23609;DHT22;11982;50.810;4.442;2023-01-29T06:40:54;0.60;99.90
23609;DHT22;11982;50.810;4.442;2023-01-29T06:43:20;0.50;99.90
23609;DHT22;11982;50.810;4.442;2023-01-29T06:45:50;0.60;99.90
23609;DHT22;11982;50.810;4.442;2023-01-29T06:48:16;0.40;99.90
23609;DHT22;11982;50.810;4.442;2023-01-29T06:50:42;0.30;99.90
23609;DHT22;11982;50.810;4.442;2023-01-29T06:53:08;0.40;99.90
23609;DHT22;11982;50.810;4.442;2023-01-29T06:55:34;0.40;99.90
23609;DHT22;11982;50.810;4.442;2023-01-29T06:58:04;0.40;99.90
23609;DHT22;11982;50.810;4.442;2023-01-29T07:00:30;0.50;99.90
23609;DHT22;11982;50.810;4.442;2023-01-29T07:02:56;0.50;99.90
23609;DHT22;11982;50.810;4.442;2023-01-29T07:05:22;0.80;99.90
23609;DHT22;11982;50.810;4.442;2023-01-29T07:07:47;0.80;99.90
23609;DHT22;11982;50.810;4.442;2023-01-29T07:10:13;0.80;99.90
23609;DHT22;11982;50.810;4.442;2023-01-29T07:12:39;0.70;99.90
23609;DHT22;11982;50.810;4.442;2023-01-29T07:15:05;0.80;99.90
23609;DHT22;11982;50.810;4.442;2023-01-29T07:17:30;0.80;99.90
23609;DHT22;11982;50.810;4.442;2023-01-29T07:19:56;0.80;99.90
23609;DHT22;11982;50.810;4.442;2023-01-29T07:22:22;0.70;99.90
23609;DHT22;11982;50.810;4.442;2023-01-29T07:24:47;0.70;99.90
23609;DHT22;11982;50.810;4.442;2023-01-29T07:27:13;0.70;99.90
23609;DHT22;11982;50.810;4.442;2023-01-29T07:29:39;0.90;99.90
23609;DHT22;11982;50.810;4.442;2023-01-29T07:32:04;1.10;99.90
23609;DHT22;11982;50.810;4.442;2023-01-29T07:34:30;1.20;99.90
23609;DHT22;11982;50.810;4.442;2023-01-29T07:36:56;1.20;99.90
23609;DHT22;11982;50.810;4.442;2023-01-29T07:39:22;1.20;99.90
23609;DHT22;11982;50.810;4.442;2023-01-29T07:41:48;1.20;99.90
23609;DHT22;11982;50.810;4.442;2023-01-29T07:44:13;1.10;99.90
23609;DHT22;11982;50.810;4.442;2023-01-29T07:46:39;1.10;99.90
23609;DHT22;11982;50.810;4.442;2023-01-29T07:49:05;1.20;99.90
23609;DHT22;11982;50.810;4.442;2023-01-29T07:51:32;1.20;99.90
23609;DHT22;11982;50.810;4.442;2023-01-29T07:53:58;1.40;99.90
23609;DHT22;11982;50.810;4.442;2023-01-29T07:56:24;1.40;99.90
23609;DHT22;11982;50.810;4.442;2023-01-29T07:58:49;1.50;99.90
23609;DHT22;11982;50.810;4.442;2023-01-29T08:01:15;1.50;99.90
23609;DHT22;11982;50.810;4.442;2023-01-29T08:03:41;1.60;99.90
23609;DHT22;11982;50.810;4.442;2023-01-29T08:06:07;1.70;99.90
23609;DHT22;11982;50.810;4.442;2023-01-29T08:08:32;1.70;99.90
23609;DHT22;11982;50.810;4.442;2023-01-29T08:11:01;1.50;99.90
23609;DHT22;11982;50.810;4.442;2023-01-29T08:13:27;1.40;99.90
23609;DHT22;11982;50.810;4.442;2023-01-29T08:15:52;1.60;99.90
23609;DHT22;11982;50.810;4.442;2023-01-29T08:18:18;1.70;99.90
23609;DHT22;11982;50.810;4.442;2023-01-29T08:20:44;1.60;99.90
23609;DHT22;11982;50.810;4.442;2023-01-29T08:23:14;1.80;99.90
23609;DHT22;11982;50.810;4.442;2023-01-29T08:25:40;1.80;99.90
23609;DHT22;11982;50.810;4.442;2023-01-29T08:28:06;1.90;99.90
23609;DHT22;11982;50.810;4.442;2023-01-29T08:30:33;1.80;99.90
23609;DHT22;11982;50.810;4.442;2023-01-29T08:32:59;1.70;99.90
23609;DHT22;11982;50.810;4.442;2023-01-29T08:35:25;1.50;99.90
23609;DHT22;11982;50.810;4.442;2023-01-29T08:37:56;1.60;99.90
23609;DHT22;11982;50.810;4.442;2023-01-29T08:40:24;1.70;99.90
23609;DHT22;11982;50.810;4.442;2023-01-29T08:42:50;1.90;99.90
23609;DHT22;11982;50.810;4.442;2023-01-29T08:45:15;2.00;99.90
23609;DHT22;11982;50.810;4.442;2023-01-29T08:47:48;2.20;99.90
23609;DHT22;11982;50.810;4.442;2023-01-29T08:50:15;2.10;99.90
23609;DHT22;11982;50.810;4.442;2023-01-29T08:52:41;2.10;99.90
23609;DHT22;11982;50.810;4.442;2023-01-29T08:55:07;2.20;99.90
23609;DHT22;11982;50.810;4.442;2023-01-29T08:57:33;2.50;99.90
23609;DHT22;11982;50.810;4.442;2023-01-29T08:59:59;2.40;99.90
23609;DHT22;11982;50.810;4.442;2023-01-29T09:02:25;2.50;99.90
23609;DHT22;11982;50.810;4.442;2023-01-29T09:04:50;2.50;99.90
23609;DHT22;11982;50.810;4.442;2023-01-29T09:07:16;2.50;99.90
23609;DHT22;11982;50.810;4.442;2023-01-29T09:09:42;2.70;99.90
23609;DHT22;11982;50.810;4.442;2023-01-29T09:12:07;2.80;99.90
23609;DHT22;11982;50.810;4.442;2023-01-29T09:14:33;2.90;99.90
23609;DHT22;11982;50.810;4.442;2023-01-29T09:16:58;3.10;99.90
23609;DHT22;11982;50.810;4.442;2023-01-29T09:19:24;3.20;99.90
23609;DHT22;11982;50.810;4.442;2023-01-29T09:21:50;3.30;99.90
23609;DHT22;11982;50.810;4.442;2023-01-29T09:24:15;3.30;99.90
23609;DHT22;11982;50.810;4.442;2023-01-29T09:26:41;3.20;99.90
23609;DHT22;11982;50.810;4.442;2023-01-29T09:29:09;3.20;99.90
23609;DHT22;11982;50.810;4.442;2023-01-29T09:31:34;3.40;99.90
23609;DHT22;11982;50.810;4.442;2023-01-29T09:34:00;3.30;99.90
23609;DHT22;11982;50.810;4.442;2023-01-29T09:36:26;3.30;99.90
23609;DHT22;11982;50.810;4.442;2023-01-29T09:38:51;3.40;99.90
23609;DHT22;11982;50.810;4.442;2023-01-29T09:43:56;3.40;99.90
23609;DHT22;11982;50.810;4.442;2023-01-29T09:48:54;3.40;99.90
23609;DHT22;11982;50.810;4.442;2023-01-29T09:51:33;3.30;99.90
23609;DHT22;11982;50.810;4.442;2023-01-29T09:54:17;3.20;99.90
23609;DHT22;11982;50.810;4.442;2023-01-29T09:56:46;3.40;99.90
23609;DHT22;11982;50.810;4.442;2023-01-29T09:59:13;3.30;99.90
23609;DHT22;11982;50.810;4.442;2023-01-29T10:10:10;3.40;99.90
23609;DHT22;11982;50.810;4.442;2023-01-29T10:12:57;3.50;99.90
23609;DHT22;11982;50.810;4.442;2023-01-29T10:15:36;3.60;99.90
23609;DHT22;11982;50.810;4.442;2023-01-29T10:21:02;3.70;99.90
23609;DHT22;11982;50.810;4.442;2023-01-29T10:23:40;3.70;99.90
23609;DHT22;11982;50.810;4.442;2023-01-29T10:26:11;3.40;99.90
23609;DHT22;11982;50.810;4.442;2023-01-29T10:28:43;3.60;99.90
23609;DHT22;11982;50.810;4.442;2023-01-29T10:31:20;3.60;99.90
23609;DHT22;11982;50.810;4.442;2023-01-29T10:33:53;3.90;99.90
23609;DHT22;11982;50.810;4.442;2023-01-29T10:36:24;4.00;99.90
23609;DHT22;11982;50.810;4.442;2023-01-29T10:38:50;4.00;99.90
23609;DHT22;11982;50.810;4.442;2023-01-29T10:58:29;3.60;99.90
23609;DHT22;11982;50.810;4.442;2023-01-29T11:00:55;3.60;99.90
23609;DHT22;11982;50.810;4.442;2023-01-29T11:03:29;3.60;99.90
23609;DHT22;11982;50.810;4.442;2023-01-29T11:08:33;3.60;99.90
23609;DHT22;11982;50.810;4.442;2023-01-29T11:11:15;3.60;99.90
23609;DHT22;11982;50.810;4.442;2023-01-29T11:13:50;3.50;99.90
23609;DHT22;11982;50.810;4.442;2023-01-29T11:16:17;3.50;99.90
23609;DHT22;11982;50.810;4.442;2023-01-29T11:19:09;3.60;99.90
23609;DHT22;11982;50.810;4.442;2023-01-29T11:21:57;3.50;99.90
23609;DHT22;11982;50.810;4.442;2023-01-29T11:24:24;3.60;99.90
23609;DHT22;11982;50.810;4.442;2023-01-29T11:26:52;3.60;99.90
23609;DHT22;11982;50.810;4.442;2023-01-29T11:32:02;3.60;99.90
23609;DHT22;11982;50.810;4.442;2023-01-29T11:34:28;3.60;99.90
23609;DHT22;11982;50.810;4.442;2023-01-29T11:37:14;3.70;99.90
23609;DHT22;11982;50.810;4.442;2023-01-29T11:39:44;3.80;99.90
23609;DHT22;11982;50.810;4.442;2023-01-29T11:42:19;3.90;99.90
23609;DHT22;11982;50.810;4.442;2023-01-29T11:44:45;4.00;99.90
23609;DHT22;11982;50.810;4.442;2023-01-29T11:49:55;3.90;99.90
23609;DHT22;11982;50.810;4.442;2023-01-29T11:52:23;3.90;99.90
23609;DHT22;11982;50.810;4.442;2023-01-29T11:54:54;3.90;99.90
23609;DHT22;11982;50.810;4.442;2023-01-29T11:57:25;3.90;99.90
23609;DHT22;11982;50.810;4.442;2023-01-29T11:59:53;4.10;99.90
23609;DHT22;11982;50.810;4.442;2023-01-29T12:02:47;4.20;99.90
23609;DHT22;11982;50.810;4.442;2023-01-29T12:05:15;4.30;99.90
23609;DHT22;11982;50.810;4.442;2023-01-29T12:07:44;4.30;99.90
23609;DHT22;11982;50.810;4.442;2023-01-29T12:15:29;4.10;99.90
23609;DHT22;11982;50.810;4.442;2023-01-29T12:18:11;4.20;99.90
23609;DHT22;11982;50.810;4.442;2023-01-29T12:20:45;4.30;99.90
23609;DHT22;11982;50.810;4.442;2023-01-29T12:26:09;4.30;99.90
23609;DHT22;11982;50.810;4.442;2023-01-29T12:39:48;4.50;99.90
23609;DHT22;11982;50.810;4.442;2023-01-29T12:42:19;4.50;99.90
23609;DHT22;11982;50.810;4.442;2023-01-29T12:44:59;4.50;99.90
23609;DHT22;11982;50.810;4.442;2023-01-29T12:47:34;4.60;99.90
23609;DHT22;11982;50.810;4.442;2023-01-29T12:50:05;4.40;99.90
23609;DHT22;11982;50.810;4.442;2023-01-29T12:52:38;4.50;99.90
23609;DHT22;11982;50.810;4.442;2023-01-29T12:55:14;4.40;99.90
23609;DHT22;11982;50.810;4.442;2023-01-29T12:57:41;4.60;99.90
23609;DHT22;11982;50.810;4.442;2023-01-29T13:00:13;4.80;99.90
23609;DHT22;11982;50.810;4.442;2023-01-29T13:02:57;4.70;99.90
23609;DHT22;11982;50.810;4.442;2023-01-29T13:05:37;4.70;99.90
23609;DHT22;11982;50.810;4.442;2023-01-29T13:08:14;4.80;99.90
23609;DHT22;11982;50.810;4.442;2023-01-29T13:10:44;4.70;99.90
23609;DHT22;11982;50.810;4.442;2023-01-29T13:13:57;4.90;99.90
23609;DHT22;11982;50.810;4.442;2023-01-29T13:15:57;5.10;99.90
23609;DHT22;11982;50.810;4.442;2023-01-29T13:21:04;4.80;99.90
23609;DHT22;11982;50.810;4.442;2023-01-29T13:23:48;5.00;99.90
23609;DHT22;11982;50.810;4.442;2023-01-29T13:26:19;5.00;99.90
23609;DHT22;11982;50.810;4.442;2023-01-29T13:28:46;5.00;99.90
23609;DHT22;11982;50.810;4.442;2023-01-29T13:31:27;4.80;99.90
23609;DHT22;11982;50.810;4.442;2023-01-29T13:34:42;4.70;99.90
23609;DHT22;11982;50.810;4.442;2023-01-29T13:37:11;4.70;99.90
23609;DHT22;11982;50.810;4.442;2023-01-29T13:39:47;4.70;99.90
23609;DHT22;11982;50.810;4.442;2023-01-29T13:42:19;4.70;99.90
23609;DHT22;11982;50.810;4.442;2023-01-29T13:44:54;4.60;99.90
23609;DHT22;11982;50.810;4.442;2023-01-29T13:47:47;4.60;99.90
23609;DHT22;11982;50.810;4.442;2023-01-29T14:07:54;4.60;99.90
23609;DHT22;11982;50.810;4.442;2023-01-29T14:10:22;4.50;99.90
23609;DHT22;11982;50.810;4.442;2023-01-29T14:15:40;4.50;99.90
23609;DHT22;11982;50.810;4.442;2023-01-29T14:18:16;4.50;99.90
23609;DHT22;11982;50.810;4.442;2023-01-29T14:26:19;4.50;99.90
23609;DHT22;11982;50.810;4.442;2023-01-29T14:31:41;4.60;99.90
23609;DHT22;11982;50.810;4.442;2023-01-29T14:34:32;4.50;99.90
23609;DHT22;11982;50.810;4.442;2023-01-29T14:37:03;4.40;99.90
23609;DHT22;11982;50.810;4.442;2023-01-29T14:39:43;4.30;99.90
23609;DHT22;11982;50.810;4.442;2023-01-29T14:42:22;4.40;99.90
23609;DHT22;11982;50.810;4.442;2023-01-29T14:47:50;4.40;99.90
23609;DHT22;11982;50.810;4.442;2023-01-29T14:55:47;4.30;99.90
23609;DHT22;11982;50.810;4.442;2023-01-29T14:58:21;4.40;99.90
23609;DHT22;11982;50.810;4.442;2023-01-29T15:00:51;4.40;99.90
23609;DHT22;11982;50.810;4.442;2023-01-29T15:03:38;4.50;99.90
23609;DHT22;11982;50.810;4.442;2023-01-29T15:06:06;4.40;99.90
23609;DHT22;11982;50.810;4.442;2023-01-29T15:08:40;4.30;99.90
23609;DHT22;11982;50.810;4.442;2023-01-29T15:11:34;4.30;99.90
23609;DHT22;11982;50.810;4.442;2023-01-29T15:14:23;4.30;99.90
23609;DHT22;11982;50.810;4.442;2023-01-29T15:17:03;4.20;99.90
23609;DHT22;11982;50.810;4.442;2023-01-29T15:22:17;4.40;99.90
23609;DHT22;11982;50.810;4.442;2023-01-29T15:24:44;4.20;99.90
23609;DHT22;11982;50.810;4.442;2023-01-29T15:27:18;4.10;99.90
23609;DHT22;11982;50.810;4.442;2023-01-29T15:29:53;4.20;99.90
23609;DHT22;11982;50.810;4.442;2023-01-29T15:32:27;4.10;99.90
23609;DHT22;11982;50.810;4.442;2023-01-29T15:34:56;4.10;99.90
23609;DHT22;11982;50.810;4.442;2023-01-29T15:37:28;4.10;99.90
23609;DHT22;11982;50.810;4.442;2023-01-29T15:39:54;4.20;99.90
23609;DHT22;11982;50.810;4.442;2023-01-29T15:42:20;4.20;99.90
23609;DHT22;11982;50.810;4.442;2023-01-29T15:44:51;4.10;99.90
23609;DHT22;11982;50.810;4.442;2023-01-29T15:47:24;4.00;99.90
23609;DHT22;11982;50.810;4.442;2023-01-29T15:49:51;4.00;99.90
23609;DHT22;11982;50.810;4.442;2023-01-29T15:52:28;3.90;99.90
23609;DHT22;11982;50.810;4.442;2023-01-29T15:54:56;4.00;99.90
23609;DHT22;11982;50.810;4.442;2023-01-29T15:57:32;4.00;99.90
23609;DHT22;11982;50.810;4.442;2023-01-29T16:00:00;4.00;99.90
23609;DHT22;11982;50.810;4.442;2023-01-29T16:04:52;3.90;99.90
23609;DHT22;11982;50.810;4.442;2023-01-29T16:07:19;3.70;99.90
23609;DHT22;11982;50.810;4.442;2023-01-29T16:09:45;3.60;99.90
23609;DHT22;11982;50.810;4.442;2023-01-29T16:12:12;3.70;99.90
23609;DHT22;11982;50.810;4.442;2023-01-29T16:14:38;3.60;99.90
23609;DHT22;11982;50.810;4.442;2023-01-29T16:17:24;3.60;99.90
23609;DHT22;11982;50.810;4.442;2023-01-29T16:19:57;3.70;99.90
23609;DHT22;11982;50.810;4.442;2023-01-29T16:22:28;3.70;99.90
23609;DHT22;11982;50.810;4.442;2023-01-29T16:24:55;3.60;99.90
23609;DHT22;11982;50.810;4.442;2023-01-29T16:27:24;3.60;99.90
23609;DHT22;11982;50.810;4.442;2023-01-29T16:29:50;3.60;99.90
23609;DHT22;11982;50.810;4.442;2023-01-29T16:32:16;3.60;99.90
23609;DHT22;11982;50.810;4.442;2023-01-29T16:34:44;3.60;99.90
23609;DHT22;11982;50.810;4.442;2023-01-29T16:37:42;3.50;99.90
23609;DHT22;11982;50.810;4.442;2023-01-29T16:40:20;3.50;99.90
23609;DHT22;11982;50.810;4.442;2023-01-29T16:43:04;3.50;99.90
23609;DHT22;11982;50.810;4.442;2023-01-29T16:45:42;3.40;99.90
23609;DHT22;11982;50.810;4.442;2023-01-29T16:48:30;3.40;99.90
23609;DHT22;11982;50.810;4.442;2023-01-29T16:51:12;3.40;99.90
23609;DHT22;11982;50.810;4.442;2023-01-29T16:53:38;3.50;99.90
23609;DHT22;11982;50.810;4.442;2023-01-29T16:56:06;3.50;99.90
23609;DHT22;11982;50.810;4.442;2023-01-29T16:58:33;3.60;99.90
23609;DHT22;11982;50.810;4.442;2023-01-29T17:01:09;3.60;99.90
23609;DHT22;11982;50.810;4.442;2023-01-29T17:03:36;3.60;99.90
23609;DHT22;11982;50.810;4.442;2023-01-29T17:06:09;3.50;99.90
23609;DHT22;11982;50.810;4.442;2023-01-29T17:08:36;3.50;99.90
23609;DHT22;11982;50.810;4.442;2023-01-29T17:11:04;3.50;99.90
23609;DHT22;11982;50.810;4.442;2023-01-29T17:13:41;3.40;99.90
23609;DHT22;11982;50.810;4.442;2023-01-29T17:18:40;3.40;99.90
23609;DHT22;11982;50.810;4.442;2023-01-29T17:21:06;3.40;99.90
23609;DHT22;11982;50.810;4.442;2023-01-29T17:23:32;3.30;99.90
23609;DHT22;11982;50.810;4.442;2023-01-29T17:25:58;3.20;99.90
23609;DHT22;11982;50.810;4.442;2023-01-29T17:28:24;3.20;99.90
23609;DHT22;11982;50.810;4.442;2023-01-29T17:30:50;3.20;99.90
23609;DHT22;11982;50.810;4.442;2023-01-29T17:33:18;3.20;99.90
23609;DHT22;11982;50.810;4.442;2023-01-29T17:35:47;3.20;99.90
23609;DHT22;11982;50.810;4.442;2023-01-29T17:38:15;3.20;99.90
23609;DHT22;11982;50.810;4.442;2023-01-29T17:43:22;3.20;99.90
23609;DHT22;11982;50.810;4.442;2023-01-29T17:45:48;3.10;99.90
23609;DHT22;11982;50.810;4.442;2023-01-29T17:48:23;3.10;99.90
23609;DHT22;11982;50.810;4.442;2023-01-29T17:50:52;3.10;99.90
23609;DHT22;11982;50.810;4.442;2023-01-29T17:53:19;3.10;99.90
23609;DHT22;11982;50.810;4.442;2023-01-29T17:55:45;3.10;99.90
23609;DHT22;11982;50.810;4.442;2023-01-29T17:58:22;3.10;99.90
23609;DHT22;11982;50.810;4.442;2023-01-29T18:00:48;3.10;99.90
23609;DHT22;11982;50.810;4.442;2023-01-29T18:03:14;3.20;99.90
23609;DHT22;11982;50.810;4.442;2023-01-29T18:05:42;3.30;99.90
23609;DHT22;11982;50.810;4.442;2023-01-29T18:08:14;3.20;99.90
23609;DHT22;11982;50.810;4.442;2023-01-29T18:10:41;3.20;99.90
23609;DHT22;11982;50.810;4.442;2023-01-29T18:13:06;3.20;99.90
23609;DHT22;11982;50.810;4.442;2023-01-29T18:15:32;3.20;99.90
23609;DHT22;11982;50.810;4.442;2023-01-29T18:17:58;3.10;99.90
23609;DHT22;11982;50.810;4.442;2023-01-29T18:20:23;3.10;99.90
23609;DHT22;11982;50.810;4.442;2023-01-29T18:22:52;3.10;99.90
23609;DHT22;11982;50.810;4.442;2023-01-29T18:25:18;3.00;99.90
23609;DHT22;11982;50.810;4.442;2023-01-29T18:27:45;2.90;99.90
23609;DHT22;11982;50.810;4.442;2023-01-29T18:30:11;2.80;99.90
23609;DHT22;11982;50.810;4.442;2023-01-29T18:32:37;2.80;99.90
23609;DHT22;11982;50.810;4.442;2023-01-29T18:35:03;2.80;99.90
23609;DHT22;11982;50.810;4.442;2023-01-29T18:37:31;2.80;99.90
23609;DHT22;11982;50.810;4.442;2023-01-29T18:39:57;2.70;99.90
23609;DHT22;11982;50.810;4.442;2023-01-29T18:42:22;2.70;99.90
23609;DHT22;11982;50.810;4.442;2023-01-29T18:44:48;2.80;99.90
23609;DHT22;11982;50.810;4.442;2023-01-29T18:47:14;2.90;99.90